Time;durP1;ratioP1;P1;durP2;ratioP2;P2;SDS_P1;SDS_P2;PMS_P1;PMS_P2;Temp;Humidity;BMP_temperature;BMP_pressure;BME280_temperature;BME280_humidity;BME280_pressure;Samples;Min_cycle;Max_cycle;Signal;HPM_P1;HPM_P2
2022/01/06 00:01:50;;;;;;;6.13;3.35;;;;;;;;;;5023173;28;20026;-80
2022/01/06 00:04:16;;;;;;;5.50;2.50;;;;;;;;;;5023691;28;20072;-78
2022/01/06 00:06:43;;;;;;;7.32;3.10;;;;;;;;;;5025319;28;20400;-77
2022/01/06 00:09:11;;;;;;;5.30;2.80;;;;;;;;;;5023928;28;20080;-78
2022/01/06 00:11:37;;;;;;;6.25;2.42;;;;;;;;;;5023425;28;20044;-79
2022/01/06 00:14:12;;;;;;;5.40;2.60;;;;;;;;;;5026151;28;20061;-78
2022/01/06 00:24:44;;;;;;;6.40;2.53;;;;;;;;;;5023931;28;20040;-78
2022/01/06 00:27:10;;;;;;;5.60;2.70;;;;;;;;;;5021914;28;20029;-78
2022/01/06 00:29:36;;;;;;;4.43;2.40;;;;;;;;;;5021655;28;20041;-78
2022/01/06 00:32:03;;;;;;;5.30;2.80;;;;;;;;;;5023062;28;20026;-78
2022/01/06 00:34:29;;;;;;;6.82;2.90;;;;;;;;;;5023555;28;20033;-78
2022/01/06 00:36:55;;;;;;;4.70;2.70;;;;;;;;;;5020814;28;20499;-78
2022/01/06 00:39:26;;;;;;;5.80;2.97;;;;;;;;;;5019698;28;20484;-80
2022/01/06 00:41:55;;;;;;;6.40;2.85;;;;;;;;;;5021839;28;20029;-78
2022/01/06 00:44:23;;;;;;;5.22;2.40;;;;;;;;;;5022143;28;20057;-78
2022/01/06 00:46:50;;;;;;;6.78;2.80;;;;;;;;;;5024856;28;20022;-77
2022/01/06 00:49:22;;;;;;;6.10;2.80;;;;;;;;;;5026279;28;20014;-78
2022/01/06 00:51:48;;;;;;;6.90;3.40;;;;;;;;;;5024422;28;20113;-77
2022/01/06 00:54:15;;;;;;;6.35;2.50;;;;;;;;;;5025130;28;20460;-78
2022/01/06 00:56:41;;;;;;;5.47;2.78;;;;;;;;;;5024750;28;20041;-78
2022/01/06 00:59:07;;;;;;;6.40;2.72;;;;;;;;;;5022252;28;20152;-78
2022/01/06 01:01:33;;;;;;;6.72;2.90;;;;;;;;;;5023784;28;20026;-78
2022/01/06 01:03:59;;;;;;;5.93;2.53;;;;;;;;;;5022839;28;20040;-77
2022/01/06 01:06:25;;;;;;;5.07;2.33;;;;;;;;;;5024114;28;20451;-78
2022/01/06 01:08:52;;;;;;;5.32;2.13;;;;;;;;;;5023445;28;20022;-78
2022/01/06 01:11:18;;;;;;;6.00;2.17;;;;;;;;;;5022580;28;20025;-77
2022/01/06 01:13:55;;;;;;;5.97;2.35;;;;;;;;;;5020798;28;20022;-77
2022/01/06 01:16:26;;;;;;;8.02;2.78;;;;;;;;;;5021863;28;20448;-79
2022/01/06 01:18:52;;;;;;;5.50;2.22;;;;;;;;;;5020317;28;20085;-77
2022/01/06 01:21:22;;;;;;;5.43;2.20;;;;;;;;;;5018817;28;20025;-76
2022/01/06 01:23:48;;;;;;;4.70;2.10;;;;;;;;;;5019903;28;20022;-77
2022/01/06 01:26:14;;;;;;;6.53;2.30;;;;;;;;;;5020901;28;20040;-77
2022/01/06 01:28:45;;;;;;;6.20;2.90;;;;;;;;;;5019756;28;20030;-79
2022/01/06 01:33:45;;;;;;;5.88;2.42;;;;;;;;;;5025355;28;20065;-78
2022/01/06 01:36:12;;;;;;;5.00;1.95;;;;;;;;;;5025667;28;20030;-79
2022/01/06 01:38:38;;;;;;;7.43;2.55;;;;;;;;;;5023230;28;20026;-77
2022/01/06 01:41:05;;;;;;;8.15;2.45;;;;;;;;;;5021068;28;20033;-78
2022/01/06 01:43:31;;;;;;;7.68;3.10;;;;;;;;;;5022660;28;20034;-78
2022/01/06 01:45:59;;;;;;;6.03;2.22;;;;;;;;;;5023463;28;20088;-77
2022/01/06 01:48:33;;;;;;;6.07;2.67;;;;;;;;;;5021799;28;20145;-78
2022/01/06 01:50:59;;;;;;;5.60;2.30;;;;;;;;;;5024313;28;20018;-79
2022/01/06 01:53:25;;;;;;;5.47;2.63;;;;;;;;;;5021914;28;20026;-79
2022/01/06 01:55:51;;;;;;;7.50;2.00;;;;;;;;;;5022924;28;20029;-78
2022/01/06 01:58:18;;;;;;;6.35;2.60;;;;;;;;;;5021540;28;20391;-78
2022/01/06 02:00:44;;;;;;;6.03;1.98;;;;;;;;;;5022276;28;20030;-79
2022/01/06 02:03:10;;;;;;;4.43;2.10;;;;;;;;;;5023120;28;20088;-78
2022/01/06 02:05:37;;;;;;;6.72;2.33;;;;;;;;;;5020938;28;20022;-78
2022/01/06 02:08:05;;;;;;;7.88;2.88;;;;;;;;;;5020979;28;20443;-78
2022/01/06 02:10:31;;;;;;;6.53;2.35;;;;;;;;;;5022015;28;20010;-78
2022/01/06 02:13:01;;;;;;;5.63;2.35;;;;;;;;;;5021669;28;20050;-78
2022/01/06 02:15:27;;;;;;;5.53;2.55;;;;;;;;;;5019619;28;20026;-78
2022/01/06 02:17:54;;;;;;;5.22;3.13;;;;;;;;;;5021893;28;20468;-78
2022/01/06 02:20:22;;;;;;;5.65;2.50;;;;;;;;;;5021349;28;20036;-78
2022/01/06 02:22:49;;;;;;;4.75;2.17;;;;;;;;;;5019756;28;20481;-78
2022/01/06 02:25:17;;;;;;;4.55;2.60;;;;;;;;;;5020475;28;20037;-78
2022/01/06 02:27:44;;;;;;;4.95;2.40;;;;;;;;;;5021492;28;20021;-78
2022/01/06 02:30:10;;;;;;;4.82;2.33;;;;;;;;;;5021330;28;20022;-78
2022/01/06 02:32:36;;;;;;;4.97;2.65;;;;;;;;;;5022589;28;20114;-79
2022/01/06 02:35:03;;;;;;;7.43;2.40;;;;;;;;;;5021543;28;20030;-78
2022/01/06 02:37:29;;;;;;;5.85;2.10;;;;;;;;;;5021350;28;20025;-78
2022/01/06 02:39:56;;;;;;;4.82;2.40;;;;;;;;;;5022310;28;20021;-78
2022/01/06 02:42:22;;;;;;;6.70;2.50;;;;;;;;;;5020985;28;20073;-79
2022/01/06 02:44:49;;;;;;;9.45;3.22;;;;;;;;;;5021833;28;20018;-78
2022/01/06 02:47:15;;;;;;;5.70;2.67;;;;;;;;;;5021963;28;20026;-78
2022/01/06 02:49:41;;;;;;;7.25;3.40;;;;;;;;;;5020949;28;20510;-78
2022/01/06 02:52:07;;;;;;;6.28;2.55;;;;;;;;;;5020959;28;20022;-78
2022/01/06 02:54:33;;;;;;;7.80;2.72;;;;;;;;;;5021712;28;20049;-79
2022/01/06 02:56:59;;;;;;;5.53;2.45;;;;;;;;;;5021464;28;20026;-78
2022/01/06 02:59:26;;;;;;;7.20;2.65;;;;;;;;;;5021700;28;20021;-79
2022/01/06 03:01:52;;;;;;;5.40;2.33;;;;;;;;;;5021623;28;20034;-79
2022/01/06 03:04:20;;;;;;;6.13;2.63;;;;;;;;;;5019247;28;20045;-77
2022/01/06 03:06:46;;;;;;;5.93;2.58;;;;;;;;;;5018233;28;20018;-77
2022/01/06 03:09:12;;;;;;;5.55;2.22;;;;;;;;;;5019320;28;20400;-79
2022/01/06 03:11:42;;;;;;;7.95;4.00;;;;;;;;;;5020378;28;20018;-78
2022/01/06 03:14:09;;;;;;;5.32;2.35;;;;;;;;;;5023003;28;20014;-79
2022/01/06 03:16:35;;;;;;;5.13;2.20;;;;;;;;;;5024139;28;20108;-78
2022/01/06 03:19:01;;;;;;;5.15;2.38;;;;;;;;;;5023242;28;20030;-78
2022/01/06 03:21:28;;;;;;;8.50;2.50;;;;;;;;;;5025932;28;20022;-79
2022/01/06 03:23:54;;;;;;;4.68;2.00;;;;;;;;;;5028540;28;20045;-78
2022/01/06 03:26:20;;;;;;;4.10;2.10;;;;;;;;;;5025759;28;20034;-78
2022/01/06 03:28:46;;;;;;;5.65;2.33;;;;;;;;;;5026358;28;20089;-78
2022/01/06 03:31:12;;;;;;;6.95;2.50;;;;;;;;;;5025225;28;20032;-78
2022/01/06 03:33:39;;;;;;;5.65;2.20;;;;;;;;;;5024131;28;20029;-78
2022/01/06 03:36:05;;;;;;;5.97;2.40;;;;;;;;;;5025644;28;20022;-78
2022/01/06 03:38:31;;;;;;;5.40;2.35;;;;;;;;;;5023885;28;20069;-79
2022/01/06 03:40:57;;;;;;;8.57;2.55;;;;;;;;;;5022565;28;20124;-79
2022/01/06 03:43:23;;;;;;;4.78;2.40;;;;;;;;;;5022920;28;20041;-78
2022/01/06 03:45:49;;;;;;;5.07;2.17;;;;;;;;;;5024076;28;20169;-78
2022/01/06 03:48:15;;;;;;;5.30;2.42;;;;;;;;;;5022848;28;20014;-79
2022/01/06 03:50:41;;;;;;;5.68;2.30;;;;;;;;;;5023310;28;20049;-78
2022/01/06 03:53:08;;;;;;;5.15;2.78;;;;;;;;;;5023989;28;20010;-79
2022/01/06 03:55:36;;;;;;;5.90;2.88;;;;;;;;;;5021704;28;20404;-78
2022/01/06 03:58:03;;;;;;;6.88;2.70;;;;;;;;;;5023368;28;20087;-78
2022/01/06 04:00:29;;;;;;;7.18;2.70;;;;;;;;;;5022765;28;20033;-78
2022/01/06 04:02:56;;;;;;;5.80;2.55;;;;;;;;;;5023060;28;20033;-79
2022/01/06 04:05:22;;;;;;;5.07;2.47;;;;;;;;;;5024449;28;20026;-78
2022/01/06 04:07:49;;;;;;;4.57;1.90;;;;;;;;;;5023135;28;20034;-79
2022/01/06 04:10:15;;;;;;;5.53;2.65;;;;;;;;;;5022550;28;20412;-78
2022/01/06 04:12:41;;;;;;;5.90;2.08;;;;;;;;;;5020706;28;20032;-77
2022/01/06 04:15:11;;;;;;;4.53;2.13;;;;;;;;;;5021054;28;20056;-78
2022/01/06 04:17:37;;;;;;;5.07;2.42;;;;;;;;;;5019969;28;20095;-78
2022/01/06 04:20:04;;;;;;;5.03;2.53;;;;;;;;;;5020892;28;20029;-76
2022/01/06 04:22:30;;;;;;;7.38;3.20;;;;;;;;;;5022187;28;20037;-78
2022/01/06 04:24:56;;;;;;;4.85;2.63;;;;;;;;;;5023071;28;20112;-78
2022/01/06 04:27:24;;;;;;;4.82;2.65;;;;;;;;;;5022357;28;20034;-78
2022/01/06 04:29:50;;;;;;;5.55;2.10;;;;;;;;;;5025018;28;20041;-79
2022/01/06 04:32:16;;;;;;;6.90;2.90;;;;;;;;;;5021161;28;20041;-78
2022/01/06 04:34:42;;;;;;;5.30;2.25;;;;;;;;;;5022613;28;20200;-78
2022/01/06 04:37:08;;;;;;;5.55;2.58;;;;;;;;;;5021591;28;20121;-77
2022/01/06 04:39:35;;;;;;;4.80;2.40;;;;;;;;;;5019721;28;20037;-77
2022/01/06 04:42:01;;;;;;;4.43;2.30;;;;;;;;;;5020234;28;20034;-78
2022/01/06 04:44:27;;;;;;;8.23;2.90;;;;;;;;;;5021624;28;20392;-78
2022/01/06 04:46:53;;;;;;;5.13;2.28;;;;;;;;;;5020320;28;20025;-78
2022/01/06 04:49:19;;;;;;;4.90;2.40;;;;;;;;;;5020233;28;20092;-78
2022/01/06 04:51:45;;;;;;;4.72;2.28;;;;;;;;;;5019842;28;20060;-77
2022/01/06 04:54:12;;;;;;;6.45;2.55;;;;;;;;;;5021702;28;20072;-78
2022/01/06 04:56:38;;;;;;;7.70;2.70;;;;;;;;;;5023763;28;20030;-78
2022/01/06 04:59:05;;;;;;;5.20;2.45;;;;;;;;;;5023067;28;20026;-79
2022/01/06 05:01:32;;;;;;;5.95;2.65;;;;;;;;;;5021225;28;20072;-78
2022/01/06 05:03:58;;;;;;;6.28;2.50;;;;;;;;;;5020919;28;20030;-79
2022/01/06 05:06:24;;;;;;;4.80;2.50;;;;;;;;;;5022136;28;20500;-77
2022/01/06 05:08:53;;;;;;;5.95;3.05;;;;;;;;;;5020889;28;20026;-76
2022/01/06 05:11:19;;;;;;;6.05;2.60;;;;;;;;;;5019204;28;20029;-78
2022/01/06 05:13:46;;;;;;;5.32;2.50;;;;;;;;;;5020062;28;20057;-78
2022/01/06 05:16:12;;;;;;;6.30;2.42;;;;;;;;;;5022261;28;20033;-79
2022/01/06 05:18:38;;;;;;;5.90;2.63;;;;;;;;;;5021353;28;20026;-78
2022/01/06 05:21:05;;;;;;;6.60;3.15;;;;;;;;;;5023033;28;20164;-78
2022/01/06 05:23:32;;;;;;;5.65;2.63;;;;;;;;;;5022386;28;20113;-78
2022/01/06 05:25:58;;;;;;;6.18;3.65;;;;;;;;;;5021712;28;20026;-79
2022/01/06 05:28:24;;;;;;;4.60;2.63;;;;;;;;;;5021294;28;20042;-78
2022/01/06 05:30:50;;;;;;;5.35;3.00;;;;;;;;;;5021419;28;20033;-79
2022/01/06 05:33:17;;;;;;;6.57;3.33;;;;;;;;;;5020002;28;20021;-79
2022/01/06 05:35:43;;;;;;;5.95;2.83;;;;;;;;;;5020773;28;20026;-77
2022/01/06 05:38:09;;;;;;;5.80;2.90;;;;;;;;;;5020200;28;20030;-78
2022/01/06 05:40:35;;;;;;;5.28;2.22;;;;;;;;;;5020121;28;20084;-77
2022/01/06 05:43:01;;;;;;;5.35;2.58;;;;;;;;;;5020228;28;20034;-78
2022/01/06 05:45:28;;;;;;;6.07;2.30;;;;;;;;;;5019603;28;20034;-79
2022/01/06 05:47:55;;;;;;;5.45;2.38;;;;;;;;;;5022048;28;20018;-78
2022/01/06 05:50:21;;;;;;;6.82;2.50;;;;;;;;;;5022246;28;20026;-79
2022/01/06 05:52:48;;;;;;;6.35;2.47;;;;;;;;;;5023199;28;20022;-78
2022/01/06 05:55:14;;;;;;;4.90;2.40;;;;;;;;;;5019899;28;20049;-80
2022/01/06 05:57:40;;;;;;;5.30;2.50;;;;;;;;;;5021698;28;20030;-78
2022/01/06 06:00:07;;;;;;;5.97;2.50;;;;;;;;;;5022345;28;20036;-78
2022/01/06 06:02:33;;;;;;;8.60;3.08;;;;;;;;;;5021375;28;20045;-79
2022/01/06 06:05:00;;;;;;;5.82;2.80;;;;;;;;;;5021417;28;20037;-78
2022/01/06 06:07:27;;;;;;;5.72;2.35;;;;;;;;;;5022454;28;20044;-78
2022/01/06 06:09:53;;;;;;;5.90;2.90;;;;;;;;;;5022240;28;20054;-78
2022/01/06 06:12:20;;;;;;;6.78;2.90;;;;;;;;;;5023678;28;20018;-78
2022/01/06 06:14:50;;;;;;;5.63;2.67;;;;;;;;;;5019610;28;20034;-78
2022/01/06 06:17:16;;;;;;;4.75;2.85;;;;;;;;;;5021661;28;20040;-78
2022/01/06 06:19:42;;;;;;;6.38;2.50;;;;;;;;;;5020001;28;20033;-78
2022/01/06 06:22:10;;;;;;;5.65;2.58;;;;;;;;;;5018606;28;20177;-78
2022/01/06 06:24:36;;;;;;;6.82;3.20;;;;;;;;;;5016860;28;20026;-78
2022/01/06 06:27:03;;;;;;;7.63;3.20;;;;;;;;;;5021279;28;20030;-78
2022/01/06 06:29:30;;;;;;;4.95;2.47;;;;;;;;;;5017653;28;20028;-77
2022/01/06 06:31:56;;;;;;;6.82;3.33;;;;;;;;;;5019698;28;20468;-77
2022/01/06 06:34:22;;;;;;;6.25;3.00;;;;;;;;;;5019269;28;20503;-78
2022/01/06 06:36:48;;;;;;;6.93;3.40;;;;;;;;;;5015517;28;20554;-77
2022/01/06 06:39:14;;;;;;;8.93;2.72;;;;;;;;;;5015547;28;20230;-77
2022/01/06 06:41:41;;;;;;;5.63;3.30;;;;;;;;;;5017792;28;20030;-77
2022/01/06 06:44:07;;;;;;;9.82;5.60;;;;;;;;;;5018243;28;20041;-78
2022/01/06 06:46:33;;;;;;;5.97;3.30;;;;;;;;;;5019561;28;20357;-77
2022/01/06 06:48:59;;;;;;;6.38;2.95;;;;;;;;;;5016534;28;20103;-77
2022/01/06 06:51:25;;;;;;;6.13;2.72;;;;;;;;;;5019646;28;20292;-77
2022/01/06 06:53:51;;;;;;;6.50;3.13;;;;;;;;;;5021248;28;20165;-78
2022/01/06 06:56:18;;;;;;;5.95;3.45;;;;;;;;;;5020758;28;20050;-77
2022/01/06 06:58:44;;;;;;;6.07;3.05;;;;;;;;;;5020097;28;20040;-77
2022/01/06 07:01:10;;;;;;;6.43;3.15;;;;;;;;;;5020095;28;20034;-78
2022/01/06 07:03:36;;;;;;;6.32;2.97;;;;;;;;;;5021472;28;20042;-78
2022/01/06 07:06:02;;;;;;;8.15;3.05;;;;;;;;;;5021496;28;20470;-77
2022/01/06 07:08:28;;;;;;;6.78;2.95;;;;;;;;;;5021757;28;20049;-77
2022/01/06 07:10:54;;;;;;;7.57;4.00;;;;;;;;;;5022334;28;20089;-78
2022/01/06 07:13:20;;;;;;;7.97;3.45;;;;;;;;;;5022185;28;20080;-77
2022/01/06 07:15:47;;;;;;;6.35;3.45;;;;;;;;;;5022477;28;20037;-78
2022/01/06 07:18:13;;;;;;;6.75;3.20;;;;;;;;;;5021792;28;20049;-78
2022/01/06 07:20:39;;;;;;;7.47;3.42;;;;;;;;;;5021427;28;20037;-77
2022/01/06 07:23:06;;;;;;;5.65;2.97;;;;;;;;;;5020664;28;20037;-77
2022/01/06 07:25:32;;;;;;;5.85;3.13;;;;;;;;;;5000529;28;20045;-77
2022/01/06 07:27:58;;;;;;;6.82;3.40;;;;;;;;;;4999207;28;20027;-78
2022/01/06 07:30:25;;;;;;;8.48;3.28;;;;;;;;;;5001110;28;20046;-78
2022/01/06 07:32:51;;;;;;;6.57;4.15;;;;;;;;;;5002005;28;20026;-78
2022/01/06 07:35:21;;;;;;;8.50;3.33;;;;;;;;;;5003256;28;20033;-78
2022/01/06 07:37:48;;;;;;;7.55;3.60;;;;;;;;;;5017917;28;20026;-78
2022/01/06 07:40:14;;;;;;;7.65;3.72;;;;;;;;;;5022409;28;20026;-76
2022/01/06 07:42:41;;;;;;;10.48;3.83;;;;;;;;;;5017893;28;20121;-78
2022/01/06 07:45:07;;;;;;;6.05;3.30;;;;;;;;;;5019176;28;20033;-77
2022/01/06 07:47:36;;;;;;;6.45;3.60;;;;;;;;;;5018791;28;20018;-78
2022/01/06 07:50:02;;;;;;;7.95;3.72;;;;;;;;;;5022060;28;20075;-78
2022/01/06 07:52:28;;;;;;;7.57;3.22;;;;;;;;;;5023391;28;20026;-78
2022/01/06 07:54:55;;;;;;;6.45;3.55;;;;;;;;;;5021003;28;20077;-79
2022/01/06 07:57:21;;;;;;;6.18;3.20;;;;;;;;;;5022766;28;20033;-78
2022/01/06 07:59:47;;;;;;;8.23;3.47;;;;;;;;;;5021045;28;20036;-77
2022/01/06 08:02:14;;;;;;;8.77;3.38;;;;;;;;;;5021700;28;20026;-80
2022/01/06 08:04:40;;;;;;;8.10;3.63;;;;;;;;;;5022043;28;20546;-78
2022/01/06 08:07:06;;;;;;;7.00;3.72;;;;;;;;;;5021055;28;20040;-78
2022/01/06 08:09:33;;;;;;;6.65;3.05;;;;;;;;;;5021722;28;20041;-78
2022/01/06 08:11:59;;;;;;;6.05;3.50;;;;;;;;;;5020045;28;20018;-78
2022/01/06 08:14:25;;;;;;;6.70;3.38;;;;;;;;;;5020239;28;20076;-78
2022/01/06 08:16:51;;;;;;;5.57;3.00;;;;;;;;;;5022957;28;20026;-79
2022/01/06 08:19:18;;;;;;;5.40;2.90;;;;;;;;;;5021295;28;20057;-77
2022/01/06 08:21:45;;;;;;;6.97;2.90;;;;;;;;;;5020230;28;20383;-78
2022/01/06 08:24:11;;;;;;;5.40;2.67;;;;;;;;;;5020231;28;20056;-78
2022/01/06 08:26:37;;;;;;;5.50;3.10;;;;;;;;;;5019878;28;20026;-78
2022/01/06 08:29:03;;;;;;;5.25;2.90;;;;;;;;;;5020726;28;20030;-78
2022/01/06 08:31:29;;;;;;;6.22;2.90;;;;;;;;;;5019042;28;20037;-78
2022/01/06 08:33:56;;;;;;;6.72;3.47;;;;;;;;;;5020924;28;20450;-78
2022/01/06 08:36:22;;;;;;;6.00;3.47;;;;;;;;;;5021338;28;20033;-78
2022/01/06 08:38:49;;;;;;;5.63;3.25;;;;;;;;;;5021764;28;20030;-79
2022/01/06 08:41:15;;;;;;;7.65;3.05;;;;;;;;;;5021621;28;20026;-77
2022/01/06 08:43:41;;;;;;;5.88;3.78;;;;;;;;;;5022574;28;20026;-79
2022/01/06 08:46:07;;;;;;;6.50;2.80;;;;;;;;;;5022233;28;20092;-77
2022/01/06 08:48:33;;;;;;;5.63;2.97;;;;;;;;;;5020936;28;20026;-77
2022/01/06 08:51:05;;;;;;;5.80;2.78;;;;;;;;;;5020483;28;20101;-77
2022/01/06 08:53:31;;;;;;;7.05;3.38;;;;;;;;;;5020951;28;20026;-78
2022/01/06 08:55:57;;;;;;;5.80;3.35;;;;;;;;;;5021999;28;20030;-77
2022/01/06 08:58:23;;;;;;;6.50;3.42;;;;;;;;;;5020322;28;20029;-78
2022/01/06 09:00:50;;;;;;;5.35;3.10;;;;;;;;;;5019168;28;20128;-79
2022/01/06 09:03:16;;;;;;;6.32;3.03;;;;;;;;;;5018402;28;20026;-77
2022/01/06 09:05:42;;;;;;;6.15;2.95;;;;;;;;;;5016981;28;20422;-77
2022/01/06 09:08:08;;;;;;;8.20;3.85;;;;;;;;;;5018656;28;20034;-77
2022/01/06 09:10:36;;;;;;;9.93;3.83;;;;;;;;;;5019084;28;20117;-78
2022/01/06 09:13:02;;;;;;;6.60;3.78;;;;;;;;;;5019591;28;20021;-78
2022/01/06 09:15:28;;;;;;;7.50;4.45;;;;;;;;;;5019487;28;20053;-77
2022/01/06 09:17:54;;;;;;;5.13;3.00;;;;;;;;;;5016562;28;20026;-78
2022/01/06 09:20:20;;;;;;;5.55;3.17;;;;;;;;;;5018399;28;20109;-77
2022/01/06 09:22:50;;;;;;;5.82;2.88;;;;;;;;;;5018842;28;20021;-78
2022/01/06 09:25:16;;;;;;;6.85;2.92;;;;;;;;;;5017341;28;20038;-78
2022/01/06 09:27:43;;;;;;;7.07;3.30;;;;;;;;;;5018861;28;20014;-76
2022/01/06 09:30:10;;;;;;;6.43;4.03;;;;;;;;;;5021089;28;20085;-79
2022/01/06 09:32:36;;;;;;;7.13;2.97;;;;;;;;;;5020989;28;20026;-77
2022/01/06 09:35:03;;;;;;;6.15;3.08;;;;;;;;;;5018260;28;20679;-78
2022/01/06 09:37:29;;;;;;;5.88;2.95;;;;;;;;;;5020166;28;20053;-78
2022/01/06 09:39:58;;;;;;;5.38;3.00;;;;;;;;;;5022060;28;20404;-78
2022/01/06 09:42:24;;;;;;;6.93;3.10;;;;;;;;;;5021522;28;20040;-77
2022/01/06 09:44:51;;;;;;;6.05;3.50;;;;;;;;;;5019019;28;20315;-77
2022/01/06 09:47:17;;;;;;;6.60;3.88;;;;;;;;;;5019440;28;20480;-79
2022/01/06 09:49:44;;;;;;;6.72;4.43;;;;;;;;;;5016489;28;20030;-78
2022/01/06 09:52:11;;;;;;;5.95;3.40;;;;;;;;;;5015487;28;20018;-78
2022/01/06 09:54:41;;;;;;;5.72;3.25;;;;;;;;;;5016388;28;20053;-78
2022/01/06 09:57:07;;;;;;;7.60;4.50;;;;;;;;;;5016559;28;20088;-77
2022/01/06 09:59:33;;;;;;;5.90;3.58;;;;;;;;;;5014666;28;20116;-77
2022/01/06 10:02:00;;;;;;;7.78;4.10;;;;;;;;;;5015017;28;20224;-77
2022/01/06 10:04:29;;;;;;;14.35;8.65;;;;;;;;;;5014349;28;20022;-77
2022/01/06 10:07:02;;;;;;;6.30;4.15;;;;;;;;;;5015446;28;20029;-77
2022/01/06 10:09:28;;;;;;;7.07;4.13;;;;;;;;;;5019256;28;20071;-78
2022/01/06 10:11:56;;;;;;;8.25;4.30;;;;;;;;;;5018083;28;20033;-79
2022/01/06 10:14:30;;;;;;;7.57;4.15;;;;;;;;;;5016358;28;20018;-77
2022/01/06 10:16:57;;;;;;;7.68;4.10;;;;;;;;;;5016476;28;20076;-77
2022/01/06 10:19:23;;;;;;;7.57;4.35;;;;;;;;;;5018489;28;20018;-78
2022/01/06 10:21:56;;;;;;;7.55;3.83;;;;;;;;;;5020720;28;20026;-78
2022/01/06 10:24:23;;;;;;;;;;;;;;;;;;5021860;28;20361;-79
2022/01/06 10:26:57;;;;;;;5.63;3.75;;;;;;;;;;5025311;28;20363;-80
2022/01/06 10:29:28;;;;;;;6.60;4.30;;;;;;;;;;5024526;28;20092;-79
2022/01/06 10:32:01;;;;;;;7.43;4.03;;;;;;;;;;5025323;28;20022;-78
2022/01/06 10:34:34;;;;;;;5.68;3.15;;;;;;;;;;5023888;28;20022;-79
2022/01/06 10:37:06;;;;;;;6.05;3.10;;;;;;;;;;5024920;28;20022;-78
2022/01/06 10:39:42;;;;;;;5.22;3.25;;;;;;;;;;5024418;28;20030;-78
2022/01/06 10:42:11;;;;;;;5.40;3.05;;;;;;;;;;5024010;28;20029;-79
2022/01/06 10:44:51;;;;;;;6.57;3.10;;;;;;;;;;5023784;28;20102;-78
2022/01/06 10:47:34;;;;;;;7.28;3.10;;;;;;;;;;5022999;28;20045;-78
2022/01/06 10:50:18;;;;;;;5.32;2.70;;;;;;;;;;5023041;28;20030;-79
2022/01/06 10:52:49;;;;;;;6.15;3.25;;;;;;;;;;5023112;28;20045;-79
2022/01/06 10:55:17;;;;;;;10.07;5.70;;;;;;;;;;5022660;28;20443;-77
2022/01/06 10:58:02;;;;;;;8.70;4.63;;;;;;;;;;5023715;28;20030;-78
2022/01/06 11:00:30;;;;;;;12.27;7.07;;;;;;;;;;5025050;28;20084;-79
2022/01/06 11:03:09;;;;;;;6.55;3.90;;;;;;;;;;5023741;28;20030;-78
2022/01/06 11:05:36;;;;;;;5.50;3.33;;;;;;;;;;5021648;28;20084;-79
2022/01/06 11:08:04;;;;;;;5.93;2.63;;;;;;;;;;5025538;28;20026;-77
2022/01/06 11:10:31;;;;;;;5.38;2.55;;;;;;;;;;5023216;28;20481;-78
2022/01/06 11:12:58;;;;;;;6.85;3.17;;;;;;;;;;5024744;28;20022;-79
2022/01/06 11:15:25;;;;;;;4.70;2.60;;;;;;;;;;5024494;28;20037;-79
2022/01/06 11:17:54;;;;;;;5.97;3.40;;;;;;;;;;5023738;28;20029;-78
2022/01/06 11:20:26;;;;;;;6.05;2.92;;;;;;;;;;5024710;28;20032;-78
2022/01/06 11:22:53;;;;;;;4.90;2.50;;;;;;;;;;5025306;28;20040;-78
2022/01/06 11:25:34;;;;;;;5.07;3.03;;;;;;;;;;5024755;28;20038;-79
2022/01/06 11:28:13;;;;;;;5.25;2.72;;;;;;;;;;5025041;28;20025;-79
2022/01/06 11:30:41;;;;;;;6.00;2.92;;;;;;;;;;5023905;28;20459;-79
2022/01/06 11:33:08;;;;;;;4.97;2.70;;;;;;;;;;5024741;28;20121;-78
2022/01/06 11:36:06;;;;;;;7.65;4.13;;;;;;;;;;5024144;28;20026;-78
2022/01/06 11:38:33;;;;;;;5.53;3.05;;;;;;;;;;4982757;28;20158;-79
2022/01/06 11:41:09;;;;;;;5.40;2.80;;;;;;;;;;4979924;28;20030;-78
2022/01/06 11:43:37;;;;;;;6.35;3.03;;;;;;;;;;4962318;29;20095;-78
2022/01/06 11:46:03;;;;;;;8.38;3.20;;;;;;;;;;4946024;29;20061;-78
2022/01/06 11:48:29;;;;;;;5.20;2.88;;;;;;;;;;4962917;29;20051;-78
2022/01/06 11:50:55;;;;;;;6.35;3.20;;;;;;;;;;4962780;29;20121;-78
2022/01/06 11:53:30;;;;;;;5.65;2.80;;;;;;;;;;4946766;29;20030;-77
2022/01/06 11:55:57;;;;;;;8.05;3.30;;;;;;;;;;4965727;28;20043;-78
2022/01/06 11:58:24;;;;;;;6.97;3.35;;;;;;;;;;4962194;29;20031;-80
2022/01/06 12:00:57;;;;;;;6.63;3.65;;;;;;;;;;4960885;29;20080;-78
2022/01/06 12:03:33;;;;;;;6.00;3.05;;;;;;;;;;4961885;29;20140;-78
2022/01/06 12:05:59;;;;;;;8.18;3.67;;;;;;;;;;4946620;29;20069;-79
2022/01/06 12:08:40;;;;;;;8.18;3.97;;;;;;;;;;4945381;28;20037;-79
2022/01/06 12:11:07;;;;;;;6.88;4.30;;;;;;;;;;4981454;28;20035;-78
2022/01/06 12:13:43;;;;;;;6.13;3.30;;;;;;;;;;4988977;28;20030;-77
2022/01/06 12:16:09;;;;;;;7.95;3.25;;;;;;;;;;5019607;28;20052;-80
2022/01/06 12:18:36;;;;;;;7.25;3.45;;;;;;;;;;5020572;28;20137;-79
2022/01/06 12:21:02;;;;;;;7.20;3.88;;;;;;;;;;5021594;28;20021;-79
2022/01/06 12:23:29;;;;;;;6.25;3.60;;;;;;;;;;5022127;28;20022;-78
2022/01/06 12:25:55;;;;;;;6.15;2.78;;;;;;;;;;5021975;28;20034;-79
2022/01/06 12:28:22;;;;;;;9.32;4.50;;;;;;;;;;5023244;28;20026;-78
2022/01/06 12:30:49;;;;;;;6.38;3.58;;;;;;;;;;5023075;28;20033;-79
2022/01/06 12:33:19;;;;;;;12.93;6.18;;;;;;;;;;5022592;28;20079;-79
2022/01/06 12:35:50;;;;;;;14.32;8.93;;;;;;;;;;5021950;28;20026;-78
2022/01/06 12:38:25;;;;;;;6.68;2.45;;;;;;;;;;5004104;28;20038;-78
2022/01/06 12:40:51;;;;;;;5.05;2.20;;;;;;;;;;5002429;28;20381;-77
2022/01/06 12:43:17;;;;;;;5.10;1.73;;;;;;;;;;5000709;28;20092;-77
2022/01/06 12:45:43;;;;;;;4.35;2.15;;;;;;;;;;5000250;28;20029;-78
2022/01/06 12:48:10;;;;;;;7.40;4.18;;;;;;;;;;5018864;28;20026;-78
2022/01/06 12:50:50;;;;;;;10.60;6.30;;;;;;;;;;5021073;28;20488;-78
2022/01/06 12:53:26;;;;;;;3.17;1.20;;;;;;;;;;5021964;28;20072;-77
2022/01/06 12:55:52;;;;;;;5.88;3.30;;;;;;;;;;5019430;28;20044;-78
2022/01/06 12:58:34;;;;;;;4.63;1.90;;;;;;;;;;5017800;28;20824;-77
2022/01/06 13:01:02;;;;;;;4.03;1.33;;;;;;;;;;5020185;28;20061;-77
2022/01/06 13:03:32;;;;;;;3.78;1.48;;;;;;;;;;5021802;28;20069;-77
2022/01/06 13:05:58;;;;;;;4.13;1.25;;;;;;;;;;5019810;28;20036;-77
2022/01/06 13:08:28;;;;;;;3.58;1.50;;;;;;;;;;5021045;28;20025;-78
2022/01/06 13:11:04;;;;;;;3.70;1.30;;;;;;;;;;5017784;28;20018;-77
2022/01/06 13:13:31;;;;;;;4.53;1.67;;;;;;;;;;5020217;28;20081;-77
2022/01/06 13:15:58;;;;;;;3.03;1.20;;;;;;;;;;5021509;28;20116;-78
2022/01/06 13:18:25;;;;;;;4.70;1.60;;;;;;;;;;5019536;28;20036;-77
2022/01/06 13:21:01;;;;;;;3.97;1.60;;;;;;;;;;5022231;28;20026;-79
2022/01/06 13:26:06;;;;;;;3.85;1.40;;;;;;;;;;5021080;28;20048;-79
2022/01/06 13:28:33;;;;;;;3.50;1.35;;;;;;;;;;5008711;28;20014;-77
2022/01/06 13:30:59;;;;;;;3.88;1.40;;;;;;;;;;5019446;28;20057;-78
2022/01/06 13:33:28;;;;;;;3.45;1.30;;;;;;;;;;5018903;28;20238;-78
2022/01/06 13:36:01;;;;;;;3.80;1.52;;;;;;;;;;5018332;28;20041;-78
2022/01/06 13:38:28;;;;;;;3.58;1.50;;;;;;;;;;5019140;28;20034;-78
2022/01/06 13:40:58;;;;;;;4.72;1.15;;;;;;;;;;5017961;28;20061;-78
2022/01/06 13:43:24;;;;;;;3.13;1.52;;;;;;;;;;5020040;28;20029;-78
2022/01/06 13:45:51;;;;;;;3.00;1.35;;;;;;;;;;5018173;28;20120;-78
2022/01/06 13:48:38;;;;;;;3.90;1.30;;;;;;;;;;5019269;28;20041;-79
2022/01/06 13:51:20;;;;;;;3.75;1.30;;;;;;;;;;5019921;28;20022;-78
2022/01/06 13:53:48;;;;;;;3.13;1.15;;;;;;;;;;5022187;28;20042;-78
2022/01/06 13:56:32;;;;;;;2.35;1.10;;;;;;;;;;5023892;28;20022;-79
2022/01/06 13:58:59;;;;;;;2.72;1.10;;;;;;;;;;5023561;28;20034;-78
2022/01/06 14:01:27;;;;;;;3.95;1.30;;;;;;;;;;5022892;28;20040;-79
2022/01/06 14:03:53;;;;;;;3.50;1.40;;;;;;;;;;5024441;28;20214;-78
2022/01/06 14:06:19;;;;;;;3.47;1.40;;;;;;;;;;5023965;28;20026;-79
2022/01/06 14:08:52;;;;;;;3.75;1.38;;;;;;;;;;5022991;28;20384;-78
2022/01/06 14:11:19;;;;;;;4.32;1.67;;;;;;;;;;5023461;28;20025;-79
2022/01/06 14:13:46;;;;;;;2.60;1.13;;;;;;;;;;5023452;28;20093;-78
2022/01/06 14:16:12;;;;;;;2.67;1.13;;;;;;;;;;5023639;28;20022;-79
2022/01/06 14:18:38;;;;;;;3.17;1.13;;;;;;;;;;5023316;28;20030;-78
2022/01/06 14:21:04;;;;;;;3.55;1.38;;;;;;;;;;5022404;28;20388;-79
2022/01/06 14:23:32;;;;;;;2.50;1.08;;;;;;;;;;5023051;28;20038;-78
2022/01/06 14:25:59;;;;;;;3.20;1.23;;;;;;;;;;5023372;28;20026;-78
2022/01/06 14:28:26;;;;;;;3.25;1.40;;;;;;;;;;5022040;28;20037;-78
2022/01/06 14:30:52;;;;;;;3.90;1.70;;;;;;;;;;5019154;28;20022;-78
2022/01/06 14:33:18;;;;;;;3.80;1.40;;;;;;;;;;5015984;28;20032;-78
2022/01/06 14:35:45;;;;;;;4.20;1.65;;;;;;;;;;5021910;28;20030;-78
2022/01/06 14:38:11;;;;;;;3.17;1.23;;;;;;;;;;5022232;28;20407;-78
2022/01/06 14:40:37;;;;;;;4.75;2.05;;;;;;;;;;5022280;28;20076;-78
2022/01/06 14:43:03;;;;;;;3.10;1.38;;;;;;;;;;5023895;28;20058;-78
2022/01/06 14:45:31;;;;;;;4.22;1.40;;;;;;;;;;5023162;28;20040;-79
2022/01/06 14:47:58;;;;;;;3.30;1.40;;;;;;;;;;5023464;28;20021;-78
2022/01/06 14:50:24;;;;;;;3.90;1.50;;;;;;;;;;5023857;28;20053;-78
2022/01/06 14:52:50;;;;;;;2.85;1.38;;;;;;;;;;5018293;28;20041;-78
2022/01/06 14:55:16;;;;;;;4.28;1.70;;;;;;;;;;5018125;28;20042;-77
2022/01/06 14:57:42;;;;;;;2.72;1.20;;;;;;;;;;5018470;28;20081;-78
2022/01/06 15:00:10;;;;;;;3.65;1.70;;;;;;;;;;5018769;28;20030;-77